Time;durP1;ratioP1;P1;durP2;ratioP2;P2;SDS_P1;SDS_P2;PMS_P1;PMS_P2;Temp;Humidity;BMP_temperature;BMP_pressure;BME280_temperature;BME280_humidity;BME280_pressure;Samples;Min_cycle;Max_cycle;Signal;HPM_P1;HPM_P2
2023/04/12 00:00:14;;;;;;;4.97;1.20;;;13.10;99.90;;;;;;5055732;28;20252;-66
2023/04/12 00:02:40;;;;;;;5.28;1.10;;;13.10;99.90;;;;;;5055604;28;20169;-66
2023/04/12 00:05:08;;;;;;;3.90;1.33;;;13.10;99.90;;;;;;5055688;28;20205;-67
2023/04/12 00:07:41;;;;;;;2.67;1.10;;;13.10;99.90;;;;;;5038305;28;20232;-67
2023/04/12 00:10:10;;;;;;;3.88;1.20;;;13.00;99.90;;;;;;5041354;28;20464;-66
2023/04/12 00:12:39;;;;;;;2.08;0.82;;;13.00;99.90;;;;;;5048215;28;20197;-68
2023/04/12 00:15:08;;;;;;;2.33;1.02;;;12.90;99.90;;;;;;5052840;28;20166;-67
2023/04/12 00:17:35;;;;;;;2.45;0.80;;;12.90;99.90;;;;;;5055028;28;20197;-68
2023/04/12 00:20:04;;;;;;;2.78;1.00;;;12.90;99.90;;;;;;5055371;28;20201;-67
2023/04/12 00:22:30;;;;;;;3.42;1.10;;;12.90;99.90;;;;;;5054637;28;20232;-67
2023/04/12 00:24:58;;;;;;;2.83;1.05;;;12.90;99.90;;;;;;5055369;28;20227;-67
2023/04/12 00:27:24;;;;;;;3.15;1.05;;;12.80;99.90;;;;;;5055198;28;20256;-68
2023/04/12 00:29:53;;;;;;;3.97;1.00;;;12.80;99.90;;;;;;5055215;28;20197;-68
2023/04/12 00:32:18;;;;;;;2.17;0.90;;;12.80;99.90;;;;;;5055602;28;20180;-67
2023/04/12 00:34:48;;;;;;;2.17;0.82;;;12.70;99.90;;;;;;5055082;28;20177;-66
2023/04/12 00:37:14;;;;;;;3.00;1.00;;;12.70;99.90;;;;;;5054908;28;20205;-68
2023/04/12 00:39:42;;;;;;;2.65;0.90;;;12.60;99.90;;;;;;5055012;28;20239;-68
2023/04/12 00:42:07;;;;;;;5.47;1.10;;;12.60;99.90;;;;;;5055064;28;20239;-67
2023/04/12 00:44:34;;;;;;;2.65;1.00;;;12.60;99.90;;;;;;5054750;28;20196;-67
2023/04/12 00:47:00;;;;;;;1.73;0.90;;;12.50;99.90;;;;;;5055051;28;20166;-68
2023/04/12 00:49:30;;;;;;;1.50;0.80;;;12.50;99.90;;;;;;5073898;28;20206;-67
2023/04/12 00:52:04;;;;;;;1.33;0.85;;;12.50;99.90;;;;;;5073269;28;20199;-68
2023/04/12 00:54:31;;;;;;;3.20;0.95;;;12.50;99.90;;;;;;5055143;28;20182;-68
2023/04/12 00:56:59;;;;;;;2.25;1.00;;;12.40;99.90;;;;;;5055145;28;20198;-67
2023/04/12 00:59:25;;;;;;;1.67;0.90;;;12.40;99.90;;;;;;5055162;28;20205;-68
2023/04/12 01:01:51;;;;;;;2.25;0.90;;;12.40;99.90;;;;;;5055351;28;20174;-67
2023/04/12 01:04:21;;;;;;;2.17;0.90;;;12.40;99.90;;;;;;5055013;28;20184;-67
2023/04/12 01:07:28;;;;;;;3.33;0.90;;;12.30;99.90;;;;;;5054227;28;20176;-67
2023/04/12 01:10:24;;;;;;;1.63;0.70;;;12.30;99.90;;;;;;5054060;28;20208;-67
2023/04/12 01:12:59;;;;;;;3.30;0.90;;;12.30;99.90;;;;;;5056239;28;20173;-68
2023/04/12 01:15:30;;;;;;;3.60;1.13;;;12.20;99.90;;;;;;5054851;28;20169;-67
2023/04/12 01:18:10;;;;;;;2.15;0.95;;;12.30;99.90;;;;;;5054992;28;20201;-67
2023/04/12 01:20:47;;;;;;;2.17;1.02;;;12.30;99.90;;;;;;5054552;28;20346;-67
2023/04/12 01:23:52;;;;;;;2.03;1.10;;;12.30;99.90;;;;;;5053906;28;20196;-66
2023/04/12 01:26:37;;;;;;;2.50;1.02;;;12.30;99.90;;;;;;5036703;28;20185;-67
2023/04/12 01:29:09;;;;;;;2.33;0.85;;;12.30;99.90;;;;;;5040735;28;20276;-68
2023/04/12 01:31:37;;;;;;;2.20;0.80;;;12.20;99.90;;;;;;5054849;28;20181;-68
2023/04/12 01:34:03;;;;;;;3.35;0.90;;;12.20;99.90;;;;;;5054281;28;20177;-68
2023/04/12 01:36:33;;;;;;;2.50;0.80;;;12.20;99.90;;;;;;5051208;28;20198;-67
2023/04/12 01:38:59;;;;;;;3.10;0.93;;;12.20;99.90;;;;;;5041752;28;20206;-68
2023/04/12 01:41:27;;;;;;;1.60;0.80;;;12.20;99.90;;;;;;5067576;28;20196;-69
2023/04/12 01:43:55;;;;;;;2.45;0.82;;;12.10;99.90;;;;;;5041642;28;20174;-68
2023/04/12 01:46:24;;;;;;;2.28;0.80;;;12.10;99.90;;;;;;5050691;28;20177;-68
2023/04/12 01:48:51;;;;;;;1.38;0.60;;;12.10;99.90;;;;;;5053653;28;20207;-68
2023/04/12 01:51:33;;;;;;;1.05;0.70;;;12.10;99.90;;;;;;5054239;28;20181;-68
2023/04/12 01:54:09;;;;;;;0.75;0.55;;;12.10;99.90;;;;;;5066081;28;20169;-68
2023/04/12 01:56:37;;;;;;;1.90;0.90;;;12.10;99.90;;;;;;5051910;28;20205;-68
2023/04/12 01:59:06;;;;;;;1.80;0.73;;;12.10;99.90;;;;;;5043384;28;20197;-68
2023/04/12 02:01:32;;;;;;;2.15;0.80;;;12.10;99.90;;;;;;5054316;28;20364;-69
2023/04/12 02:04:00;;;;;;;2.05;0.90;;;12.00;99.90;;;;;;5053880;28;20188;-68
2023/04/12 02:06:26;;;;;;;1.27;0.80;;;11.90;99.90;;;;;;5054267;28;20185;-68
2023/04/12 02:09:04;;;;;;;1.85;0.82;;;11.90;99.90;;;;;;5054063;28;20284;-68
2023/04/12 02:11:34;;;;;;;1.60;0.85;;;11.80;99.90;;;;;;5054122;28;20177;-68
2023/04/12 02:14:00;;;;;;;1.67;0.98;;;11.80;99.90;;;;;;5056049;28;20214;-67
2023/04/12 02:16:28;;;;;;;1.92;1.08;;;11.70;99.90;;;;;;5053620;28;20225;-67
2023/04/12 02:18:56;;;;;;;2.75;0.80;;;11.70;99.90;;;;;;5053798;28;20307;-68
2023/04/12 02:21:26;;;;;;;3.42;0.80;;;11.60;99.90;;;;;;5054824;28;20169;-68
2023/04/12 02:23:52;;;;;;;1.98;0.88;;;11.60;99.90;;;;;;5059231;28;20178;-69
2023/04/12 02:26:17;;;;;;;2.45;0.77;;;11.50;99.90;;;;;;5057976;28;20191;-68
2023/04/12 02:28:44;;;;;;;2.85;0.98;;;11.50;99.90;;;;;;5053741;28;20197;-67
2023/04/12 02:31:10;;;;;;;1.20;0.70;;;11.40;99.90;;;;;;5050037;28;20265;-68
2023/04/12 02:33:36;;;;;;;1.40;1.00;;;11.40;99.90;;;;;;5053829;28;20256;-67
2023/04/12 02:36:02;;;;;;;1.38;0.80;;;11.30;99.90;;;;;;5053708;28;20227;-68
2023/04/12 02:38:28;;;;;;;2.45;1.00;;;11.30;99.90;;;;;;5052626;28;20205;-68
2023/04/12 02:40:56;;;;;;;1.80;0.88;;;11.20;99.90;;;;;;5048551;28;20241;-68
2023/04/12 02:43:22;;;;;;;2.25;0.90;;;11.10;99.90;;;;;;5057010;28;20181;-68
2023/04/12 02:45:48;;;;;;;1.65;0.60;;;11.10;99.90;;;;;;5038548;28;20180;-68
2023/04/12 02:48:13;;;;;;;2.83;0.80;;;11.00;99.90;;;;;;5057427;28;20250;-68
2023/04/12 02:50:41;;;;;;;3.25;0.95;;;11.00;99.90;;;;;;5056795;28;20273;-67
2023/04/12 02:53:07;;;;;;;1.85;1.00;;;10.90;99.90;;;;;;5056985;28;20173;-68
2023/04/12 02:55:32;;;;;;;2.83;0.98;;;10.90;99.90;;;;;;5057251;28;20226;-67
2023/04/12 02:57:58;;;;;;;2.17;0.90;;;10.90;99.90;;;;;;5059321;28;20211;-67
2023/04/12 03:00:23;;;;;;;2.25;0.90;;;10.90;99.90;;;;;;5065418;28;20169;-68
2023/04/12 03:02:50;;;;;;;3.40;1.27;;;10.80;99.90;;;;;;5051201;28;20201;-68
2023/04/12 03:05:16;;;;;;;3.07;0.90;;;10.80;99.90;;;;;;5057256;28;20165;-68
2023/04/12 03:07:42;;;;;;;2.70;1.07;;;10.70;99.90;;;;;;5057333;28;20174;-67
2023/04/12 03:10:10;;;;;;;2.00;0.90;;;10.70;99.90;;;;;;5053128;28;20166;-68
2023/04/12 03:12:36;;;;;;;1.75;1.00;;;10.70;99.90;;;;;;5057044;28;20191;-68
2023/04/12 03:15:02;;;;;;;2.22;0.80;;;10.70;99.90;;;;;;5057039;28;20297;-67
2023/04/12 03:17:31;;;;;;;1.65;0.85;;;10.60;99.90;;;;;;5060036;28;20181;-68
2023/04/12 03:20:09;;;;;;;1.83;0.88;;;10.60;99.90;;;;;;5057287;28;20177;-68
2023/04/12 03:22:41;;;;;;;2.55;1.20;;;10.60;99.90;;;;;;5056827;28;20189;-68
2023/04/12 03:25:12;;;;;;;1.58;1.00;;;10.60;99.90;;;;;;5054951;28;20237;-68
2023/04/12 03:27:40;;;;;;;4.20;1.25;;;10.60;99.90;;;;;;5050869;28;20188;-67
2023/04/12 03:30:10;;;;;;;3.63;1.20;;;10.60;99.90;;;;;;5056631;28;20184;-68
2023/04/12 03:32:39;;;;;;;4.33;1.27;;;10.50;99.90;;;;;;5047502;28;20188;-68
2023/04/12 03:35:06;;;;;;;2.57;0.93;;;10.50;99.90;;;;;;5063479;28;20192;-67
2023/04/12 03:37:32;;;;;;;3.40;1.20;;;10.50;99.90;;;;;;5060635;28;20184;-68
2023/04/12 03:40:01;;;;;;;2.20;1.10;;;10.50;99.90;;;;;;5044821;28;20226;-68
2023/04/12 03:42:27;;;;;;;2.08;1.17;;;10.50;99.90;;;;;;5063518;28;20202;-68
2023/04/12 03:44:53;;;;;;;2.47;1.20;;;10.40;99.90;;;;;;5056388;28;20262;-67
2023/04/12 03:47:21;;;;;;;3.72;1.50;;;10.40;99.90;;;;;;5056902;28;20213;-68
2023/04/12 03:49:47;;;;;;;1.97;1.20;;;10.40;99.90;;;;;;5051403;28;20201;-68
2023/04/12 03:52:13;;;;;;;1.50;0.90;;;10.40;99.90;;;;;;5056631;28;20269;-68
2023/04/12 03:54:43;;;;;;;3.30;1.40;;;10.40;99.90;;;;;;5056480;28;20185;-68
2023/04/12 03:57:11;;;;;;;2.40;1.40;;;10.40;99.90;;;;;;5056564;28;20162;-68
2023/04/12 03:59:39;;;;;;;3.10;1.30;;;10.30;99.90;;;;;;5056179;28;20200;-68
2023/04/12 04:02:04;;;;;;;3.43;1.30;;;10.40;99.90;;;;;;5055930;28;20193;-68
2023/04/12 04:04:32;;;;;;;2.78;1.27;;;10.40;99.90;;;;;;5056125;28;20272;-68
2023/04/12 04:07:01;;;;;;;1.63;1.23;;;10.40;99.90;;;;;;5056401;28;20260;-68
2023/04/12 04:09:29;;;;;;;2.80;1.40;;;10.30;99.90;;;;;;5056345;28;20170;-68
2023/04/12 04:11:55;;;;;;;2.33;1.20;;;10.40;99.90;;;;;;5060764;28;20188;-68
2023/04/12 04:14:21;;;;;;;2.87;1.10;;;10.40;99.90;;;;;;5071476;28;20197;-67
2023/04/12 04:16:46;;;;;;;3.65;1.50;;;10.30;99.90;;;;;;5055706;28;20188;-67
2023/04/12 04:19:14;;;;;;;2.65;1.48;;;10.40;99.90;;;;;;5056089;28;20258;-68
2023/04/12 04:21:41;;;;;;;4.07;1.27;;;10.30;99.90;;;;;;5055619;28;20267;-68
2023/04/12 04:24:10;;;;;;;2.40;1.27;;;10.40;99.90;;;;;;5064280;28;20238;-69
2023/04/12 04:26:40;;;;;;;3.03;1.30;;;10.30;99.90;;;;;;5052494;28;20213;-68
2023/04/12 04:29:06;;;;;;;3.17;1.40;;;10.30;99.90;;;;;;5041361;28;20189;-67
2023/04/12 04:31:35;;;;;;;2.20;1.05;;;10.40;99.90;;;;;;5053041;28;20264;-68
2023/04/12 04:34:02;;;;;;;2.95;1.23;;;10.30;99.90;;;;;;5054520;28;20295;-68
2023/04/12 04:36:28;;;;;;;3.47;1.60;;;10.30;99.90;;;;;;5047353;28;20268;-67
2023/04/12 04:38:58;;;;;;;2.95;1.40;;;10.30;99.90;;;;;;5054265;28;20224;-68
2023/04/12 04:41:24;;;;;;;3.03;1.30;;;10.30;99.90;;;;;;5055051;28;20250;-68
2023/04/12 04:43:50;;;;;;;1.85;1.20;;;10.30;99.90;;;;;;5055161;28;20196;-68
2023/04/12 04:46:20;;;;;;;2.10;1.20;;;10.40;99.90;;;;;;5054478;28;20255;-67
2023/04/12 04:48:50;;;;;;;1.63;1.20;;;10.20;99.90;;;;;;5054557;28;20185;-67
2023/04/12 04:51:18;;;;;;;2.27;1.40;;;10.30;99.90;;;;;;5054151;28;20272;-67
2023/04/12 04:53:45;;;;;;;2.10;1.25;;;10.20;99.90;;;;;;5054275;28;20240;-67
2023/04/12 04:56:13;;;;;;;2.03;1.13;;;10.20;99.90;;;;;;5053860;28;20200;-67
2023/04/12 04:58:39;;;;;;;2.65;1.30;;;10.20;99.90;;;;;;5050657;28;20217;-68
2023/04/12 05:01:05;;;;;;;4.17;1.40;;;10.20;99.90;;;;;;5051126;28;20174;-67
2023/04/12 05:03:34;;;;;;;1.97;1.30;;;10.10;99.90;;;;;;5053989;28;20173;-67
2023/04/12 05:06:04;;;;;;;1.30;1.00;;;10.10;99.90;;;;;;5054324;28;20184;-66
2023/04/12 05:08:32;;;;;;;4.23;1.23;;;10.20;99.90;;;;;;5050041;28;20193;-67
2023/04/12 05:10:58;;;;;;;1.45;1.10;;;10.10;99.90;;;;;;5053979;28;20278;-68
2023/04/12 05:13:28;;;;;;;1.63;1.10;;;10.10;99.90;;;;;;5054070;28;20432;-67
2023/04/12 05:15:54;;;;;;;2.40;1.33;;;10.10;99.90;;;;;;5053870;28;20286;-67
2023/04/12 05:18:21;;;;;;;2.20;1.20;;;10.20;99.90;;;;;;5050611;28;20644;-68
2023/04/12 05:20:49;;;;;;;2.07;1.30;;;10.10;99.90;;;;;;5034082;28;20178;-67
2023/04/12 05:23:16;;;;;;;2.80;1.13;;;10.20;99.90;;;;;;5053586;28;20235;-68
2023/04/12 05:25:46;;;;;;;1.50;0.90;;;10.10;99.90;;;;;;5053782;28;20185;-68
2023/04/12 05:28:16;;;;;;;1.83;1.30;;;10.10;99.90;;;;;;5046949;28;20186;-67
2023/04/12 05:30:45;;;;;;;1.43;0.93;;;10.10;99.90;;;;;;5034068;28;20214;-67
2023/04/12 05:33:15;;;;;;;2.00;1.00;;;10.10;99.90;;;;;;5046438;28;20272;-67
2023/04/12 05:35:41;;;;;;;1.70;1.10;;;10.10;99.90;;;;;;5053436;28;20212;-68
2023/04/12 05:38:08;;;;;;;1.70;1.20;;;10.10;99.90;;;;;;5052968;28;20205;-67
2023/04/12 05:40:35;;;;;;;3.30;1.23;;;10.00;99.90;;;;;;5053647;28;20173;-67
2023/04/12 05:43:03;;;;;;;3.33;1.37;;;10.00;99.90;;;;;;5035745;28;20168;-68
2023/04/12 05:45:31;;;;;;;2.03;1.10;;;10.00;99.90;;;;;;5050189;28;20189;-66
2023/04/12 05:47:56;;;;;;;1.70;1.10;;;9.90;99.90;;;;;;5053478;28;20204;-67
2023/04/12 05:50:22;;;;;;;1.83;1.10;;;10.00;99.90;;;;;;5053720;28;20176;-68
2023/04/12 05:52:50;;;;;;;1.90;1.00;;;9.80;99.90;;;;;;5053567;28;20213;-67
2023/04/12 05:55:17;;;;;;;1.43;1.10;;;9.90;99.90;;;;;;5049961;28;20181;-68
2023/04/12 05:57:45;;;;;;;2.17;1.30;;;9.80;99.90;;;;;;5047288;28;20215;-68
2023/04/12 06:00:17;;;;;;;3.63;1.10;;;9.80;99.90;;;;;;5051814;28;20197;-67
2023/04/12 06:02:47;;;;;;;2.73;1.10;;;9.80;99.90;;;;;;5050262;28;20234;-68
2023/04/12 06:05:18;;;;;;;2.00;1.10;;;9.80;99.90;;;;;;5053230;28;20309;-68
2023/04/12 06:07:47;;;;;;;2.37;1.10;;;9.80;99.90;;;;;;5053671;28;20173;-67
2023/04/12 06:10:16;;;;;;;2.00;1.10;;;9.80;99.90;;;;;;5053018;28;20175;-67
2023/04/12 06:12:42;;;;;;;2.17;1.20;;;9.80;99.90;;;;;;5053746;28;20204;-68
2023/04/12 06:15:10;;;;;;;3.47;1.40;;;9.80;99.90;;;;;;5036905;28;20276;-68
2023/04/12 06:17:43;;;;;;;1.80;1.17;;;9.80;99.90;;;;;;5043186;28;20181;-68
2023/04/12 06:20:09;;;;;;;1.97;1.10;;;9.80;99.90;;;;;;5033853;28;20213;-68
2023/04/12 06:22:37;;;;;;;1.30;1.00;;;9.80;99.90;;;;;;5050985;28;20260;-67
2023/04/12 06:25:08;;;;;;;1.63;1.00;;;9.70;99.90;;;;;;5056791;28;20253;-68
2023/04/12 06:27:38;;;;;;;2.03;1.00;;;9.80;99.90;;;;;;5057265;28;20189;-67
2023/04/12 06:30:07;;;;;;;2.10;1.07;;;9.80;99.90;;;;;;5057051;28;20177;-67
2023/04/12 06:32:33;;;;;;;1.67;1.00;;;9.80;99.90;;;;;;5056782;28;20173;-66
2023/04/12 06:34:58;;;;;;;1.97;1.00;;;9.80;99.90;;;;;;5071619;28;20224;-67
2023/04/12 06:37:24;;;;;;;2.67;1.23;;;9.80;99.90;;;;;;5057035;28;20174;-67
2023/04/12 06:39:51;;;;;;;1.25;0.90;;;9.90;99.90;;;;;;5043637;28;20202;-67
2023/04/12 06:42:17;;;;;;;2.43;1.10;;;9.80;99.90;;;;;;5056670;28;20207;-67
2023/04/12 06:44:43;;;;;;;2.30;1.00;;;9.90;99.90;;;;;;5057107;28;20244;-67
2023/04/12 06:47:08;;;;;;;2.07;1.00;;;9.90;99.90;;;;;;5056832;28;20352;-66
2023/04/12 06:49:34;;;;;;;2.03;1.10;;;9.90;99.90;;;;;;5056926;28;20189;-68
2023/04/12 06:52:02;;;;;;;1.43;1.00;;;9.90;99.90;;;;;;5057052;28;20186;-68
2023/04/12 06:54:28;;;;;;;1.17;0.80;;;10.00;99.90;;;;;;5057278;28;20173;-67
2023/04/12 06:56:53;;;;;;;2.28;1.02;;;10.00;99.90;;;;;;5057304;28;20177;-68
2023/04/12 06:59:19;;;;;;;2.73;1.07;;;10.00;99.90;;;;;;5056724;28;20201;-67
2023/04/12 07:01:44;;;;;;;1.00;0.90;;;10.10;99.90;;;;;;5057130;28;20216;-67
2023/04/12 07:04:13;;;;;;;1.00;0.90;;;10.00;99.90;;;;;;5056963;28;20228;-67
2023/04/12 07:06:41;;;;;;;1.23;1.03;;;10.00;99.90;;;;;;5049421;28;20185;-67
2023/04/12 07:09:07;;;;;;;1.13;0.80;;;10.10;99.90;;;;;;5049253;28;20212;-67
2023/04/12 07:11:32;;;;;;;1.40;0.90;;;10.10;99.90;;;;;;5057198;28;20185;-67
2023/04/12 07:13:58;;;;;;;1.27;0.90;;;10.10;99.90;;;;;;5057662;28;20169;-67
2023/04/12 07:16:27;;;;;;;1.10;0.80;;;10.10;99.90;;;;;;5056715;28;20205;-67
2023/04/12 07:18:53;;;;;;;1.33;0.90;;;10.10;99.90;;;;;;5058330;28;20209;-68
2023/04/12 07:21:18;;;;;;;1.77;1.27;;;10.10;99.90;;;;;;5051834;28;20216;-68
2023/04/12 07:23:49;;;;;;;1.23;1.02;;;10.20;99.90;;;;;;5062415;28;20193;-67
2023/04/12 07:26:18;;;;;;;1.27;1.10;;;10.20;99.90;;;;;;5056902;28;20188;-67
2023/04/12 07:28:46;;;;;;;1.52;1.00;;;10.20;99.90;;;;;;5044335;28;20196;-67
2023/04/12 07:31:17;;;;;;;1.08;0.95;;;10.30;99.90;;;;;;5044495;28;20212;-67
2023/04/12 07:33:43;;;;;;;1.85;0.80;;;10.30;99.90;;;;;;5057790;28;20194;-68
2023/04/12 07:36:10;;;;;;;1.40;0.80;;;10.30;99.90;;;;;;5049428;28;20196;-67
2023/04/12 07:38:36;;;;;;;1.70;0.80;;;10.30;99.90;;;;;;5059953;28;20208;-67
2023/04/12 07:41:01;;;;;;;1.70;1.00;;;10.40;99.90;;;;;;5043881;28;20185;-69
2023/04/12 07:43:29;;;;;;;1.90;1.00;;;10.40;99.90;;;;;;5056623;28;20383;-67
2023/04/12 07:45:55;;;;;;;1.10;0.90;;;10.50;99.90;;;;;;5056296;28;20173;-67
2023/04/12 07:48:20;;;;;;;2.85;0.98;;;10.40;99.90;;;;;;5046070;28;20181;-67
2023/04/12 07:50:46;;;;;;;1.00;0.73;;;10.50;99.90;;;;;;5060460;28;20202;-67
2023/04/12 07:53:23;;;;;;;1.35;0.80;;;10.60;99.90;;;;;;5052941;28;20174;-68
2023/04/12 07:55:49;;;;;;;2.80;1.10;;;10.60;99.90;;;;;;5052217;28;20282;-68
2023/04/12 07:58:16;;;;;;;1.42;0.80;;;10.70;99.90;;;;;;5054928;28;20201;-68
2023/04/12 08:00:49;;;;;;;1.02;0.80;;;10.70;99.90;;;;;;5056058;28;20177;-68
2023/04/12 08:03:18;;;;;;;1.00;0.80;;;10.70;99.90;;;;;;5052235;28;20188;-68
2023/04/12 08:05:44;;;;;;;1.30;0.95;;;10.80;99.90;;;;;;5055402;28;20162;-68
2023/04/12 08:08:13;;;;;;;1.05;0.82;;;10.80;99.90;;;;;;5055742;28;20179;-68
2023/04/12 08:10:38;;;;;;;1.25;0.80;;;10.80;99.90;;;;;;5055553;28;20287;-68
2023/04/12 08:13:05;;;;;;;1.00;0.75;;;10.80;99.90;;;;;;5055474;28;20216;-68
2023/04/12 08:15:31;;;;;;;0.63;0.52;;;10.90;99.90;;;;;;5052002;28;20178;-65
2023/04/12 08:17:56;;;;;;;1.00;0.70;;;11.00;99.90;;;;;;5053205;28;20201;-68
2023/04/12 08:20:22;;;;;;;0.70;0.70;;;11.00;99.90;;;;;;5052277;28;20170;-67
2023/04/12 08:22:48;;;;;;;0.68;0.63;;;11.10;99.90;;;;;;5052150;28;20170;-68
2023/04/12 08:25:17;;;;;;;1.05;0.70;;;11.20;99.90;;;;;;5051959;28;20209;-68
2023/04/12 08:27:44;;;;;;;0.93;0.70;;;11.10;99.90;;;;;;5052365;28;20166;-68
2023/04/12 08:30:10;;;;;;;1.17;0.70;;;11.20;99.90;;;;;;5051873;28;20189;-67
2023/04/12 08:32:38;;;;;;;1.02;0.80;;;11.20;99.90;;;;;;5063419;28;20201;-67
2023/04/12 08:35:05;;;;;;;1.15;0.80;;;11.20;99.90;;;;;;5052084;28;20181;-65
2023/04/12 08:37:33;;;;;;;0.85;0.77;;;11.20;99.90;;;;;;5054813;28;20189;-68
2023/04/12 08:40:03;;;;;;;1.85;0.65;;;11.30;99.90;;;;;;5054680;28;20219;-67
2023/04/12 08:42:30;;;;;;;1.30;0.70;;;11.30;99.90;;;;;;5054969;28;20181;-66
2023/04/12 08:45:02;;;;;;;1.10;0.70;;;11.40;99.90;;;;;;5054042;28;20181;-67
2023/04/12 08:47:29;;;;;;;0.70;0.70;;;11.50;99.90;;;;;;5051632;28;20245;-68
2023/04/12 08:49:59;;;;;;;2.13;0.82;;;11.60;99.90;;;;;;5051548;28;20186;-68
2023/04/12 08:52:24;;;;;;;0.82;0.70;;;11.60;99.90;;;;;;5035718;28;20206;-68
2023/04/12 08:54:53;;;;;;;0.80;0.60;;;11.60;99.90;;;;;;5035071;28;20344;-68
2023/04/12 08:57:19;;;;;;;0.77;0.68;;;11.60;99.90;;;;;;5040585;28;20181;-68
2023/04/12 08:59:49;;;;;;;0.73;0.60;;;11.70;99.90;;;;;;5054513;28;20213;-69
2023/04/12 09:02:14;;;;;;;0.82;0.73;;;11.70;99.90;;;;;;5049314;28;20166;-68
2023/04/12 09:04:51;;;;;;;1.08;0.70;;;11.80;99.90;;;;;;5054644;28;20177;-68
2023/04/12 09:07:26;;;;;;;0.70;0.60;;;11.80;99.90;;;;;;5049691;28;20264;-68
2023/04/12 09:09:58;;;;;;;1.95;0.60;;;11.90;99.90;;;;;;5051322;28;20200;-69
2023/04/12 09:12:29;;;;;;;1.10;0.70;;;12.00;99.90;;;;;;5051486;28;20249;-66
2023/04/12 09:15:16;;;;;;;1.17;0.63;;;12.10;99.90;;;;;;5054270;28;20178;-68
2023/04/12 09:17:42;;;;;;;1.48;1.20;;;12.30;99.90;;;;;;5071177;28;20180;-67
2023/04/12 09:20:11;;;;;;;1.15;0.80;;;12.30;99.90;;;;;;5054327;28;20205;-67
2023/04/12 09:22:43;;;;;;;1.38;0.90;;;12.40;99.90;;;;;;5054456;28;20188;-69
2023/04/12 09:25:08;;;;;;;0.80;0.80;;;12.40;99.90;;;;;;5054570;28;20221;-69
2023/04/12 09:27:52;;;;;;;1.38;0.80;;;12.50;99.90;;;;;;5054171;28;20272;-69
2023/04/12 09:30:21;;;;;;;1.20;0.82;;;12.50;99.90;;;;;;5051925;28;20169;-69
2023/04/12 09:32:49;;;;;;;0.95;0.85;;;12.50;99.90;;;;;;5034670;28;20185;-69
2023/04/12 09:35:15;;;;;;;0.50;0.50;;;12.50;99.90;;;;;;5046268;28;20256;-69
2023/04/12 09:37:40;;;;;;;0.77;0.68;;;12.60;99.90;;;;;;5045737;28;20194;-68
2023/04/12 09:40:08;;;;;;;0.98;0.80;;;12.60;99.90;;;;;;5053670;28;20227;-67
2023/04/12 09:42:37;;;;;;;1.02;0.77;;;12.60;99.90;;;;;;5054415;28;20189;-69
2023/04/12 09:45:24;;;;;;;1.27;0.82;;;12.70;99.90;;;;;;5053825;28;20173;-68
2023/04/12 09:47:50;;;;;;;1.13;0.75;;;12.70;99.90;;;;;;5054410;28;20196;-69
2023/04/12 09:50:36;;;;;;;1.20;0.75;;;12.70;99.90;;;;;;5054193;28;20425;-68
2023/04/12 09:53:17;;;;;;;0.63;0.60;;;12.70;99.90;;;;;;5054309;28;20162;-70
2023/04/12 09:55:49;;;;;;;1.25;0.65;;;12.80;99.90;;;;;;5056729;28;20213;-69
2023/04/12 09:58:20;;;;;;;1.50;0.82;;;12.80;99.90;;;;;;5039595;28;20201;-69
2023/04/12 10:00:47;;;;;;;1.90;1.10;;;12.70;99.90;;;;;;5058292;28;20165;-69
2023/04/12 10:03:12;;;;;;;2.08;0.90;;;12.70;99.90;;;;;;5065293;28;20199;-69
2023/04/12 10:05:40;;;;;;;2.00;0.82;;;12.80;99.90;;;;;;5078002;28;20260;-67
2023/04/12 10:08:05;;;;;;;1.02;0.82;;;12.80;99.90;;;;;;5068238;28;20170;-70
2023/04/12 10:10:33;;;;;;;1.20;0.90;;;12.80;99.90;;;;;;5050213;28;20264;-68
2023/04/12 10:13:00;;;;;;;1.92;0.90;;;12.80;99.90;;;;;;5054748;28;20227;-68
2023/04/12 10:15:28;;;;;;;1.42;0.82;;;12.90;99.90;;;;;;5038004;28;20495;-69
2023/04/12 10:17:56;;;;;;;1.10;0.90;;;12.90;99.90;;;;;;5047363;28;20194;-69
2023/04/12 10:20:22;;;;;;;1.73;0.85;;;13.00;99.90;;;;;;5058194;28;20165;-70
2023/04/12 10:22:50;;;;;;;0.95;0.60;;;13.00;99.90;;;;;;5051479;28;20215;-70
2023/04/12 10:25:18;;;;;;;1.50;1.10;;;13.10;99.90;;;;;;5057710;28;20177;-70
2023/04/12 10:27:44;;;;;;;1.15;1.05;;;13.20;99.90;;;;;;5056934;28;20169;-68
2023/04/12 10:30:22;;;;;;;1.00;0.82;;;13.20;99.90;;;;;;5056676;28;20347;-68
2023/04/12 10:33:00;;;;;;;1.20;1.08;;;13.30;99.90;;;;;;5047537;28;20322;-65
2023/04/12 10:35:26;;;;;;;1.38;1.00;;;13.40;99.90;;;;;;5037197;28;20284;-67
2023/04/12 10:38:03;;;;;;;1.40;1.20;;;13.50;99.90;;;;;;5045148;28;20354;-68
2023/04/12 10:40:31;;;;;;;1.10;1.00;;;13.70;99.90;;;;;;5057032;28;20230;-67
2023/04/12 10:43:21;;;;;;;1.60;1.20;;;13.90;99.90;;;;;;5056910;28;20196;-69
2023/04/12 10:45:49;;;;;;;1.08;0.90;;;14.10;99.90;;;;;;5038229;28;20272;-68
2023/04/12 10:48:37;;;;;;;2.05;0.80;;;14.40;99.90;;;;;;5056369;28;20214;-70
2023/04/12 10:51:27;;;;;;;1.27;0.95;;;14.70;99.90;;;;;;5064849;28;20204;-68
2023/04/12 10:54:16;;;;;;;1.08;0.80;;;15.00;99.90;;;;;;5077242;28;20181;-67
2023/04/12 10:56:49;;;;;;;1.70;0.95;;;15.30;99.90;;;;;;5047882;28;20191;-68
2023/04/12 10:59:17;;;;;;;1.33;0.98;;;15.40;99.90;;;;;;5057226;28;20193;-68
2023/04/12 11:02:09;;;;;;;1.15;0.80;;;15.40;99.90;;;;;;5056917;28;20239;-69
2023/04/12 11:04:35;;;;;;;2.00;0.80;;;15.40;99.90;;;;;;5043902;28;20193;-69
2023/04/12 11:07:08;;;;;;;1.00;0.80;;;15.30;99.90;;;;;;5055908;28;20177;-69
2023/04/12 11:09:41;;;;;;;0.75;0.35;;;15.10;99.90;;;;;;5056524;28;20401;-68
2023/04/12 11:12:07;;;;;;;0.50;0.50;;;14.80;99.90;;;;;;5036988;28;20189;-69
2023/04/12 11:14:48;;;;;;;0.47;0.47;;;14.50;99.90;;;;;;5053439;28;20174;-67
2023/04/12 11:17:16;;;;;;;0.70;0.55;;;14.20;99.90;;;;;;5053241;28;20225;-69
2023/04/12 11:19:47;;;;;;;0.47;0.47;;;13.80;99.90;;;;;;5056669;28;20193;-69
2023/04/12 11:22:15;;;;;;;0.90;0.73;;;13.50;99.90;;;;;;5056735;28;20260;-67
2023/04/12 11:24:46;;;;;;;3.05;0.70;;;13.30;99.90;;;;;;5053165;28;20265;-68
2023/04/12 11:27:15;;;;;;;0.52;0.50;;;13.10;99.90;;;;;;5051491;28;20193;-69
2023/04/12 11:29:45;;;;;;;0.88;0.70;;;12.90;99.90;;;;;;5055799;28;20701;-70
2023/04/12 11:32:15;;;;;;;0.90;0.60;;;12.80;99.90;;;;;;5053052;28;20255;-69
2023/04/12 11:34:43;;;;;;;1.55;0.55;;;12.70;99.90;;;;;;5056539;28;20197;-70
2023/04/12 11:37:11;;;;;;;1.83;0.80;;;12.70;99.90;;;;;;5039738;28;20262;-70
2023/04/12 11:39:39;;;;;;;1.13;0.70;;;12.80;99.90;;;;;;5052627;28;20198;-70
2023/04/12 11:42:07;;;;;;;2.20;1.13;;;12.80;99.90;;;;;;5052639;28;20218;-69
2023/04/12 11:44:34;;;;;;;1.20;0.80;;;12.90;99.90;;;;;;5037577;28;20437;-68
2023/04/12 11:47:02;;;;;;;1.42;0.93;;;12.90;99.90;;;;;;5046275;28;20227;-69
2023/04/12 11:49:30;;;;;;;1.38;0.80;;;12.90;99.90;;;;;;5055859;28;20197;-66
2023/04/12 11:52:03;;;;;;;2.15;0.88;;;12.90;99.90;;;;;;5055514;28;20173;-68
2023/04/12 11:54:29;;;;;;;1.45;0.90;;;13.00;99.90;;;;;;5055795;28;20585;-69
2023/04/12 11:56:59;;;;;;;1.55;1.00;;;13.00;99.90;;;;;;5055418;28;20292;-69
2023/04/12 11:59:32;;;;;;;5.15;0.95;;;13.00;99.90;;;;;;5055524;28;20193;-67
2023/04/12 12:02:01;;;;;;;1.73;1.00;;;13.00;99.90;;;;;;5055508;28;20169;-70
2023/04/12 12:04:28;;;;;;;1.83;1.10;;;13.10;99.90;;;;;;5052274;28;20178;-69
2023/04/12 12:06:56;;;;;;;3.17;1.23;;;13.20;99.90;;;;;;5052343;28;20221;-69
2023/04/12 12:09:22;;;;;;;3.28;1.27;;;13.10;99.90;;;;;;5047320;28;20263;-69
2023/04/12 12:11:48;;;;;;;2.22;1.30;;;13.20;99.90;;;;;;5052525;28;20182;-69
2023/04/12 12:14:18;;;;;;;2.83;1.30;;;13.10;99.90;;;;;;5048771;28;20177;-67
2023/04/12 12:16:52;;;;;;;2.08;1.20;;;13.20;99.90;;;;;;5035409;28;20170;-67
2023/04/12 12:19:32;;;;;;;2.70;1.40;;;13.20;99.90;;;;;;5034674;28;20286;-69
2023/04/12 12:22:10;;;;;;;3.17;1.10;;;13.30;99.90;;;;;;5060551;28;20165;-69
2023/04/12 12:24:37;;;;;;;1.48;1.20;;;13.40;99.90;;;;;;5054685;28;20201;-68
2023/04/12 12:27:05;;;;;;;3.92;1.20;;;13.40;99.90;;;;;;5055076;28;20181;-66
2023/04/12 12:29:41;;;;;;;2.17;1.20;;;13.50;99.90;;;;;;5054824;28;20185;-69
2023/04/12 12:32:12;;;;;;;1.85;1.10;;;13.50;99.90;;;;;;5055255;28;20226;-70
2023/04/12 12:34:39;;;;;;;2.63;1.00;;;13.60;99.90;;;;;;5049620;28;20181;-70
2023/04/12 12:37:12;;;;;;;1.42;1.05;;;13.70;99.90;;;;;;5054768;28;20201;-68
2023/04/12 12:39:39;;;;;;;1.92;1.10;;;13.80;99.90;;;;;;5054039;28;20193;-69
2023/04/12 12:42:07;;;;;;;2.97;1.33;;;13.90;99.90;;;;;;5052538;28;20209;-69
2023/04/12 12:44:36;;;;;;;2.42;1.20;;;14.00;99.90;;;;;;5051352;28;20174;-65
2023/04/12 12:47:02;;;;;;;1.90;1.15;;;14.10;99.90;;;;;;5062818;28;20405;-69
2023/04/12 12:49:27;;;;;;;1.88;1.08;;;14.20;99.90;;;;;;5072234;28;20188;-70
2023/04/12 12:51:58;;;;;;;2.50;1.38;;;14.40;99.90;;;;;;5055011;28;20507;-67
2023/04/12 12:54:23;;;;;;;2.25;1.40;;;14.60;99.90;;;;;;5055420;28;20197;-69
2023/04/12 12:56:49;;;;;;;1.88;1.10;;;14.70;99.90;;;;;;5055447;28;20173;-69